createdAt,value
2022-11-07T00:00:36.237Z,10.26
2022-11-07T00:03:02.826Z,10.21
2022-11-07T00:05:29.454Z,10.22
2022-11-07T00:07:55.939Z,10.25
2022-11-07T00:10:22.849Z,10.27
2022-11-07T00:12:49.398Z,10.24
2022-11-07T00:15:16.012Z,10.25
2022-11-07T00:17:42.503Z,10.24
2022-11-07T00:20:09.554Z,10.25
2022-11-07T00:22:36.157Z,10.28
2022-11-07T00:25:04.744Z,10.27
2022-11-07T00:27:31.343Z,10.24
2022-11-07T00:29:57.854Z,10.27
2022-11-07T00:32:24.742Z,10.30
2022-11-07T00:34:51.292Z,10.33
2022-11-07T00:37:17.804Z,10.33
2022-11-07T00:39:44.287Z,10.33
2022-11-07T00:42:10.793Z,10.32
2022-11-07T00:44:37.305Z,10.32
2022-11-07T00:47:04.533Z,10.36
2022-11-07T00:49:31.026Z,10.33
2022-11-07T00:51:57.564Z,10.34
2022-11-07T00:54:24.157Z,10.38
2022-11-07T00:56:50.633Z,10.33
2022-11-07T00:59:17.197Z,10.32
2022-11-07T01:01:43.872Z,10.36
2022-11-07T01:04:46.562Z,10.32
2022-11-07T01:07:13.270Z,10.39
2022-11-07T01:09:42.179Z,10.35
2022-11-07T01:12:08.682Z,10.33
2022-11-07T01:14:35.991Z,10.38
2022-11-07T01:17:02.486Z,10.39
2022-11-07T01:19:29.082Z,10.43
2022-11-07T01:21:55.806Z,10.42
2022-11-07T01:24:22.397Z,10.43
2022-11-07T01:26:52.230Z,10.46
2022-11-07T01:29:19.551Z,10.50
2022-11-07T01:31:46.733Z,10.45
2022-11-07T01:34:13.834Z,10.38
2022-11-07T01:36:40.361Z,10.42
2022-11-07T01:39:06.907Z,10.43
2022-11-07T01:41:35.685Z,10.45
2022-11-07T01:44:04.106Z,10.48
2022-11-07T01:46:38.985Z,10.51
2022-11-07T01:49:13.815Z,10.57
2022-11-07T01:52:00.180Z,10.61
2022-11-07T01:54:44.633Z,10.67
2022-11-07T01:57:17.044Z,10.77
2022-11-07T01:59:43.590Z,10.79
2022-11-07T02:02:10.476Z,10.80
2022-11-07T02:04:37.834Z,10.80
2022-11-07T02:07:19.152Z,10.84
2022-11-07T02:09:46.546Z,10.83
2022-11-07T02:12:14.393Z,10.82
2022-11-07T02:14:45.320Z,10.82
2022-11-07T02:17:13.860Z,10.81
2022-11-07T02:19:44.429Z,10.80
2022-11-07T02:22:37.113Z,10.89
2022-11-07T02:25:08.594Z,10.86
2022-11-07T02:27:37.293Z,10.92
2022-11-07T02:30:28.220Z,10.95
2022-11-07T02:32:55.349Z,10.93
2022-11-07T02:35:36.895Z,10.98
2022-11-07T02:38:12.259Z,10.96
2022-11-07T02:40:39.824Z,10.97
2022-11-07T02:43:09.663Z,10.96
2022-11-07T02:45:42.520Z,11.03
2022-11-07T02:48:08.991Z,11.06
2022-11-07T02:50:35.561Z,11.00
2022-11-07T02:53:02.085Z,11.01
2022-11-07T02:55:28.668Z,10.94
2022-11-07T02:57:55.141Z,10.91
2022-11-07T03:00:21.633Z,10.88
2022-11-07T03:02:49.051Z,10.84
2022-11-07T03:05:17.712Z,10.90
2022-11-07T03:07:45.397Z,10.96
2022-11-07T03:10:12.943Z,10.99
2022-11-07T03:12:39.673Z,11.04
2022-11-07T03:15:08.093Z,11.04
2022-11-07T03:17:34.978Z,11.08
2022-11-07T03:20:01.876Z,11.04
2022-11-07T03:22:28.429Z,10.92
2022-11-07T03:24:54.910Z,10.81
2022-11-07T03:27:21.482Z,10.70
2022-11-07T03:29:48.074Z,10.66
2022-11-07T03:32:14.651Z,10.62
2022-11-07T03:34:41.107Z,10.62
2022-11-07T03:37:10.399Z,10.60
2022-11-07T03:39:37.117Z,10.60
2022-11-07T03:42:04.308Z,10.57
2022-11-07T03:44:30.841Z,10.56
2022-11-07T03:46:57.414Z,10.53
2022-11-07T03:49:23.897Z,10.52
2022-11-07T03:51:50.432Z,10.53
2022-11-07T03:54:16.877Z,10.53
2022-11-07T03:56:43.369Z,10.52
2022-11-07T03:59:09.844Z,10.54
2022-11-07T04:01:36.381Z,10.54
2022-11-07T04:04:03.145Z,10.48
2022-11-07T04:06:29.623Z,10.54
2022-11-07T04:08:56.194Z,10.52
2022-11-07T04:11:41.162Z,10.54
2022-11-07T04:14:26.764Z,10.55
2022-11-07T04:17:11.847Z,10.51
2022-11-07T04:19:38.565Z,10.56
2022-11-07T04:22:05.045Z,10.61
2022-11-07T04:24:31.500Z,10.58
2022-11-07T04:27:16.434Z,10.60
2022-11-07T04:29:43.157Z,10.60
2022-11-07T04:32:09.713Z,10.63
2022-11-07T04:34:36.321Z,10.62
2022-11-07T04:37:02.799Z,10.63
2022-11-07T04:39:29.412Z,10.59
2022-11-07T04:41:56.580Z,10.67
2022-11-07T04:44:23.141Z,10.64
2022-11-07T04:46:49.678Z,10.70
2022-11-07T04:49:16.146Z,10.70
2022-11-07T04:51:43.337Z,10.73
2022-11-07T04:54:16.306Z,10.74
2022-11-07T04:56:42.771Z,10.77
2022-11-07T04:59:11.731Z,10.73
2022-11-07T05:01:40.577Z,10.71
2022-11-07T05:04:07.096Z,10.73
2022-11-07T05:06:37.891Z,10.73
2022-11-07T05:09:04.599Z,10.70
2022-11-07T05:11:31.168Z,10.73
2022-11-07T05:13:57.773Z,10.69
2022-11-07T05:16:24.316Z,10.72
2022-11-07T05:18:50.898Z,10.69
2022-11-07T05:21:17.356Z,10.70
2022-11-07T05:23:43.958Z,10.68
2022-11-07T05:26:10.465Z,10.70
2022-11-07T05:28:39.734Z,10.71
2022-11-07T05:31:08.344Z,10.69
2022-11-07T05:33:35.597Z,10.65
2022-11-07T05:36:16.298Z,10.65
2022-11-07T05:38:45.529Z,10.64
2022-11-07T05:41:13.496Z,10.60
2022-11-07T05:43:40.373Z,10.61
2022-11-07T05:46:10.216Z,10.62
2022-11-07T05:48:39.653Z,10.66
2022-11-07T05:51:07.876Z,10.66
2022-11-07T05:53:34.844Z,10.67
2022-11-07T05:56:03.551Z,10.64
2022-11-07T05:58:30.045Z,10.62
2022-11-07T06:01:01.709Z,10.68
2022-11-07T06:03:28.294Z,10.70
2022-11-07T06:05:54.829Z,10.72
2022-11-07T06:08:21.510Z,10.72
2022-11-07T06:10:49.024Z,10.75
2022-11-07T06:13:17.000Z,10.70
2022-11-07T06:15:45.079Z,10.74
2022-11-07T06:18:17.010Z,10.70
2022-11-07T06:20:44.921Z,10.76
2022-11-07T06:23:12.078Z,10.72
2022-11-07T06:25:39.313Z,10.74
2022-11-07T06:28:08.930Z,10.78
2022-11-07T06:30:37.712Z,10.75
2022-11-07T06:33:06.829Z,10.74
2022-11-07T06:35:33.856Z,10.73
2022-11-07T06:38:12.441Z,10.75
2022-11-07T06:40:40.965Z,10.75
2022-11-07T06:43:15.995Z,10.71
2022-11-07T06:45:44.551Z,10.76
2022-11-07T06:48:13.429Z,10.76
2022-11-07T06:50:40.116Z,10.75
2022-11-07T06:53:09.187Z,10.76
2022-11-07T06:55:37.056Z,10.77
2022-11-07T06:58:04.612Z,10.77
2022-11-07T07:00:32.972Z,10.79
2022-11-07T07:02:59.719Z,10.79
2022-11-07T07:05:26.891Z,10.80
2022-11-07T07:07:55.313Z,10.83
2022-11-07T07:10:22.197Z,10.87
2022-11-07T07:12:48.691Z,10.87
2022-11-07T07:15:15.348Z,10.90
2022-11-07T07:17:41.993Z,10.94
2022-11-07T07:20:09.224Z,10.93
2022-11-07T07:22:35.714Z,10.98
2022-11-07T07:25:02.212Z,11.03
2022-11-07T07:27:28.694Z,11.03
2022-11-07T07:29:55.345Z,11.05
2022-11-07T07:32:25.044Z,11.10
2022-11-07T07:34:52.293Z,11.15
2022-11-07T07:37:19.425Z,11.17
2022-11-07T07:39:45.953Z,11.15
2022-11-07T07:42:12.473Z,11.19
2022-11-07T07:44:40.367Z,11.27
2022-11-07T07:47:11.313Z,11.24
2022-11-07T07:49:38.373Z,11.27
2022-11-07T07:52:05.501Z,11.29
2022-11-07T07:54:32.102Z,11.28
2022-11-07T07:56:58.665Z,11.26
2022-11-07T07:59:25.153Z,11.30
2022-11-07T08:01:56.644Z,11.34
2022-11-07T08:04:24.854Z,11.33
2022-11-07T08:06:51.571Z,11.35
2022-11-07T08:09:18.627Z,11.36
2022-11-07T08:11:45.138Z,11.29
2022-11-07T08:14:11.785Z,11.37
2022-11-07T08:16:40.089Z,11.39
2022-11-07T08:19:06.781Z,11.40
2022-11-07T08:21:33.633Z,11.41
2022-11-07T08:24:01.674Z,11.43
2022-11-07T08:26:28.192Z,11.39
2022-11-07T08:28:55.128Z,11.45
2022-11-07T08:31:22.222Z,11.47
2022-11-07T08:33:48.775Z,11.46
2022-11-07T08:36:15.437Z,11.47
2022-11-07T08:38:41.967Z,11.36
2022-11-07T08:41:08.932Z,11.55
2022-11-07T08:43:35.512Z,11.58
2022-11-07T08:46:02.061Z,11.63
2022-11-07T08:48:28.917Z,11.61
2022-11-07T08:50:57.418Z,11.66
2022-11-07T08:53:25.625Z,11.67
2022-11-07T08:55:53.070Z,11.68
2022-11-07T08:58:20.137Z,11.74
2022-11-07T09:00:47.163Z,11.77
2022-11-07T09:06:01.263Z,11.82
2022-11-07T09:08:29.003Z,11.77
2022-11-07T09:10:55.578Z,11.81
2022-11-07T09:13:22.143Z,11.87
2022-11-07T09:15:51.452Z,11.97
2022-11-07T09:18:19.633Z,12.07
2022-11-07T09:20:46.247Z,12.06
2022-11-07T09:23:20.406Z,12.16
2022-11-07T09:25:47.225Z,12.30
2022-11-07T09:28:14.452Z,12.28
2022-11-07T09:30:41.357Z,12.37
2022-11-07T09:33:08.282Z,12.43
2022-11-07T09:35:34.869Z,12.42
2022-11-07T09:38:01.432Z,12.51
2022-11-07T09:40:40.727Z,12.65
2022-11-07T09:43:44.799Z,12.79
2022-11-07T09:46:14.069Z,12.76
2022-11-07T09:48:49.126Z,12.78
2022-11-07T09:51:33.588Z,12.77
2022-11-07T09:54:06.628Z,12.84
2022-11-07T09:56:34.224Z,12.92
2022-11-07T09:59:11.101Z,13.08
2022-11-07T10:01:40.672Z,13.31
2022-11-07T10:04:24.704Z,13.44
2022-11-07T10:07:16.501Z,13.41
2022-11-07T10:09:58.122Z,13.50
2022-11-07T10:12:53.657Z,13.34
2022-11-07T10:15:53.654Z,13.28
2022-11-07T10:18:32.771Z,13.25
2022-11-07T10:21:30.545Z,13.23
2022-11-07T10:23:54.807Z,13.26
2022-11-07T10:26:25.980Z,13.27
2022-11-07T10:29:10.600Z,13.39
2022-11-07T10:31:41.308Z,13.46
2022-11-07T10:34:23.494Z,13.78
2022-11-07T10:36:50.426Z,14.16
2022-11-07T10:39:19.478Z,14.23
2022-11-07T10:42:06.934Z,14.19
2022-11-07T10:44:34.511Z,14.18
2022-11-07T10:47:03.358Z,14.21
2022-11-07T10:49:32.401Z,14.08
2022-11-07T10:52:22.389Z,14.03
2022-11-07T10:54:49.531Z,14.01
2022-11-07T10:57:22.622Z,14.05
2022-11-07T10:59:51.875Z,14.13
2022-11-07T11:02:23.473Z,14.22
2022-11-07T11:04:56.208Z,14.21
2022-11-07T11:07:28.653Z,14.31
2022-11-07T11:09:57.877Z,14.34
2022-11-07T11:12:34.528Z,14.34
2022-11-07T11:15:23.369Z,14.36
2022-11-07T11:17:58.329Z,14.29
2022-11-07T11:20:33.520Z,14.43
2022-11-07T11:23:02.685Z,14.50
2022-11-07T11:25:29.243Z,14.67
2022-11-07T11:28:06.207Z,14.78
2022-11-07T11:30:35.897Z,14.68
2022-11-07T11:33:04.001Z,14.72
2022-11-07T11:36:01.408Z,14.70
2022-11-07T11:38:37.594Z,14.62
2022-11-07T11:41:16.295Z,14.49
2022-11-07T11:43:55.327Z,14.49
2022-11-07T11:46:36.849Z,14.56
2022-11-07T11:49:14.071Z,14.70
2022-11-07T11:51:45.425Z,14.60
2022-11-07T11:54:15.090Z,14.65
2022-11-07T11:56:58.902Z,14.64
2022-11-07T11:59:49.971Z,14.79
2022-11-07T12:02:34.551Z,15.03
2022-11-07T12:05:22.755Z,15.23
2022-11-07T12:08:02.330Z,15.33
2022-11-07T12:10:54.830Z,15.12
2022-11-07T12:13:43.384Z,15.10
2022-11-07T12:16:27.107Z,14.91
2022-11-07T12:19:30.837Z,14.72
2022-11-07T12:22:17.625Z,14.62
2022-11-07T12:25:05.806Z,14.71
2022-11-07T12:27:43.008Z,14.66
2022-11-07T12:30:25.616Z,14.61
2022-11-07T12:33:00.237Z,14.58
2022-11-07T12:35:35.862Z,14.57
2022-11-07T12:38:24.249Z,14.52
2022-11-07T12:41:20.311Z,14.54
2022-11-07T12:43:57.684Z,14.54
2022-11-07T12:46:45.420Z,14.49
2022-11-07T12:49:43.136Z,14.41
2022-11-07T12:52:36.678Z,14.34
2022-11-07T12:55:40.000Z,14.30
2022-11-07T12:58:15.597Z,14.16
2022-11-07T13:00:43.099Z,14.08
2022-11-07T13:03:43.581Z,14.07
2022-11-07T13:06:15.206Z,14.07
2022-11-07T13:08:56.854Z,14.09
2022-11-07T13:11:55.965Z,14.12
2022-11-07T13:14:24.223Z,14.18
2022-11-07T13:17:03.006Z,14.19
2022-11-07T13:19:33.139Z,14.12
2022-11-07T13:22:06.084Z,14.07
2022-11-07T13:24:38.214Z,14.06
2022-11-07T13:27:20.773Z,13.97
2022-11-07T13:29:47.236Z,13.82
2022-11-07T13:32:15.354Z,13.78
2022-11-07T13:35:00.507Z,13.76
2022-11-07T13:37:35.073Z,13.68
2022-11-07T13:40:13.589Z,13.63
2022-11-07T13:42:41.891Z,13.64
2022-11-07T13:45:58.352Z,13.65
2022-11-07T13:48:44.573Z,13.65
2022-11-07T13:51:34.649Z,13.67
2022-11-07T13:54:17.153Z,13.67
2022-11-07T13:57:12.040Z,13.68
2022-11-07T13:59:56.950Z,13.67
2022-11-07T14:02:26.488Z,13.62
2022-11-07T14:05:19.774Z,13.62
2022-11-07T14:08:07.991Z,13.59
2022-11-07T14:10:39.561Z,13.63
2022-11-07T14:13:12.348Z,13.63
2022-11-07T14:15:48.128Z,13.67
2022-11-07T14:18:17.357Z,13.64
2022-11-07T14:20:53.597Z,13.66
2022-11-07T14:23:26.745Z,13.68
2022-11-07T14:26:01.150Z,13.77
2022-11-07T14:28:35.990Z,13.83
2022-11-07T14:31:04.831Z,13.89
2022-11-07T14:33:31.396Z,13.84
2022-11-07T14:36:04.875Z,13.78
2022-11-07T14:38:32.203Z,13.73
2022-11-07T14:41:02.511Z,13.75
2022-11-07T14:43:31.052Z,13.75
2022-11-07T14:46:14.430Z,13.73
2022-11-07T14:48:42.778Z,13.78
2022-11-07T14:51:13.335Z,13.84
2022-11-07T14:53:51.462Z,13.87
2022-11-07T14:56:21.417Z,13.85
2022-11-07T14:58:51.732Z,13.95
2022-11-07T15:01:34.437Z,13.93
2022-11-07T15:04:16.521Z,13.99
2022-11-07T15:06:45.190Z,14.04
2022-11-07T15:09:12.434Z,14.07
2022-11-07T15:11:55.764Z,14.09
2022-11-07T15:14:26.227Z,14.13
2022-11-07T15:16:54.195Z,14.16
2022-11-07T15:19:23.692Z,14.16
2022-11-07T15:21:58.020Z,14.19
2022-11-07T15:24:45.556Z,14.20
2022-11-07T15:27:29.320Z,14.19
2022-11-07T15:29:58.535Z,14.20
2022-11-07T15:32:29.849Z,14.19
2022-11-07T15:35:12.349Z,14.12
2022-11-07T15:37:59.352Z,14.06
2022-11-07T15:40:27.840Z,14.11
2022-11-07T15:42:54.308Z,14.13
2022-11-07T15:45:21.437Z,14.14
2022-11-07T15:47:48.928Z,14.11
2022-11-07T15:50:24.859Z,14.07
2022-11-07T15:52:52.910Z,14.11
2022-11-07T15:55:21.883Z,14.02
2022-11-07T15:57:51.690Z,14.14
2022-11-07T16:00:21.051Z,14.15
2022-11-07T16:02:47.909Z,14.16
2022-11-07T16:05:15.335Z,14.17
2022-11-07T16:07:43.153Z,14.10
2022-11-07T16:10:24.132Z,14.07
2022-11-07T16:12:50.873Z,14.11
2022-11-07T16:15:19.834Z,14.12
2022-11-07T16:17:46.870Z,14.09
2022-11-07T16:20:21.798Z,14.10
2022-11-07T16:22:49.902Z,14.06
2022-11-07T16:25:22.684Z,14.07
2022-11-07T16:27:53.912Z,14.08
2022-11-07T16:30:21.613Z,14.07
2022-11-07T16:32:48.682Z,14.02
2022-11-07T16:35:15.622Z,13.88
2022-11-07T16:37:42.226Z,13.84
2022-11-07T16:40:13.812Z,13.80
2022-11-07T16:42:40.391Z,13.79
2022-11-07T16:45:07.817Z,13.80
2022-11-07T16:47:39.575Z,13.85
2022-11-07T16:50:06.785Z,13.86
2022-11-07T16:52:33.385Z,13.84
2022-11-07T16:54:59.923Z,13.89
2022-11-07T16:57:26.432Z,13.94
2022-11-07T16:59:53.080Z,14.02
2022-11-07T17:02:22.886Z,14.09
2022-11-07T17:04:51.179Z,14.09
2022-11-07T17:07:19.516Z,14.11
2022-11-07T17:09:46.198Z,14.11
2022-11-07T17:12:17.987Z,14.18
2022-11-07T17:14:44.753Z,14.21
2022-11-07T17:17:16.821Z,14.20
2022-11-07T17:19:43.628Z,14.21
2022-11-07T17:22:12.051Z,14.24
2022-11-07T17:24:39.222Z,14.22
2022-11-07T17:27:25.977Z,14.19
2022-11-07T17:29:53.892Z,14.08
2022-11-07T17:32:20.736Z,14.11
2022-11-07T17:34:59.203Z,14.12
2022-11-07T17:37:35.456Z,14.14
2022-11-07T17:40:02.239Z,14.07
2022-11-07T17:42:31.542Z,14.08
2022-11-07T17:45:00.311Z,14.04
2022-11-07T17:47:34.362Z,14.04
2022-11-07T17:50:01.221Z,14.00
2022-11-07T17:52:27.753Z,14.00
2022-11-07T17:54:55.038Z,14.03
2022-11-07T17:57:21.609Z,14.03
2022-11-07T17:59:51.405Z,14.00
2022-11-07T18:02:20.083Z,13.99
2022-11-07T18:04:46.777Z,14.07
2022-11-07T18:07:13.240Z,14.06
2022-11-07T18:09:43.019Z,14.16
2022-11-07T18:12:10.864Z,14.19
2022-11-07T18:14:37.963Z,14.13
2022-11-07T18:17:05.341Z,14.18
2022-11-07T18:19:31.897Z,14.16
2022-11-07T18:22:00.763Z,14.21
2022-11-07T18:24:27.323Z,14.18
2022-11-07T18:26:53.904Z,14.16
2022-11-07T18:29:20.470Z,14.14
2022-11-07T18:31:51.812Z,14.10
2022-11-07T18:34:20.475Z,14.20
2022-11-07T18:36:47.862Z,14.20
2022-11-07T18:39:22.025Z,14.18
2022-11-07T18:41:52.648Z,14.22
2022-11-07T18:44:19.453Z,14.21
2022-11-07T18:46:46.944Z,14.09
2022-11-07T18:49:14.432Z,14.02
2022-11-07T18:51:42.882Z,13.99
2022-11-07T18:54:10.595Z,13.93
2022-11-07T18:56:37.140Z,13.88
2022-11-07T18:59:03.617Z,13.85
2022-11-07T19:01:32.348Z,13.81
2022-11-07T19:04:01.501Z,13.77
2022-11-07T19:06:30.113Z,13.73
2022-11-07T19:08:57.032Z,13.67
2022-11-07T19:11:28.680Z,13.67
2022-11-07T19:13:57.103Z,13.71
2022-11-07T19:16:23.958Z,13.67
2022-11-07T19:18:51.519Z,13.67
2022-11-07T19:21:20.871Z,13.60
2022-11-07T19:23:48.320Z,13.61
2022-11-07T19:26:15.299Z,13.62
2022-11-07T19:28:41.804Z,13.63
2022-11-07T19:31:12.654Z,13.66
2022-11-07T19:33:41.488Z,13.71
2022-11-07T19:36:12.823Z,13.75
2022-11-07T19:38:39.464Z,13.77
2022-11-07T19:41:07.314Z,13.79
2022-11-07T19:43:34.699Z,13.87
2022-11-07T19:46:06.445Z,13.89
2022-11-07T19:48:32.936Z,13.87
2022-11-07T19:50:59.462Z,13.82
2022-11-07T19:53:25.951Z,13.85
2022-11-07T19:55:53.639Z,13.86
2022-11-07T19:58:20.081Z,13.88
2022-11-07T20:00:46.626Z,13.88
2022-11-07T20:03:13.240Z,13.93
2022-11-07T20:05:40.313Z,14.01
2022-11-07T20:08:06.901Z,14.01
2022-11-07T20:10:34.013Z,14.05
2022-11-07T20:13:00.819Z,14.01
2022-11-07T20:15:27.367Z,13.99
2022-11-07T20:17:53.851Z,14.02
2022-11-07T20:20:20.441Z,13.99
2022-11-07T20:22:50.327Z,13.96
2022-11-07T20:25:17.044Z,13.98
2022-11-07T20:27:43.553Z,14.01
2022-11-07T20:30:10.949Z,13.98
2022-11-07T20:32:37.709Z,13.95
2022-11-07T20:35:04.596Z,13.98
2022-11-07T20:37:31.088Z,14.02
2022-11-07T20:39:57.587Z,13.94
2022-11-07T20:42:24.121Z,13.86
2022-11-07T20:44:51.134Z,13.81
2022-11-07T20:47:17.895Z,13.69
2022-11-07T20:49:44.402Z,13.62
2022-11-07T20:52:10.962Z,13.59
2022-11-07T20:54:37.704Z,13.61
2022-11-07T20:57:04.438Z,13.60
2022-11-07T20:59:35.224Z,13.61
2022-11-07T21:02:03.881Z,13.66
2022-11-07T21:04:56.307Z,13.66
2022-11-07T21:07:24.736Z,13.77
2022-11-07T21:09:51.444Z,13.74
2022-11-07T21:12:18.104Z,13.69
2022-11-07T21:14:46.133Z,13.66
2022-11-07T21:17:12.665Z,13.59
2022-11-07T21:19:39.126Z,13.62
2022-11-07T21:22:06.304Z,13.66
2022-11-07T21:24:32.791Z,13.62
2022-11-07T21:26:59.617Z,13.56
2022-11-07T21:29:29.602Z,13.41
2022-11-07T21:31:57.147Z,13.42
2022-11-07T21:34:24.326Z,13.39
2022-11-07T21:36:50.954Z,13.28
2022-11-07T21:39:17.921Z,13.26
2022-11-07T21:41:44.871Z,13.20
2022-11-07T21:44:14.683Z,13.32
2022-11-07T21:46:41.378Z,13.34
2022-11-07T21:49:07.933Z,13.33
2022-11-07T21:51:35.792Z,13.26
2022-11-07T21:54:06.315Z,13.17
2022-11-07T21:56:38.062Z,13.14
2022-11-07T21:59:09.847Z,13.17
2022-11-07T22:01:37.877Z,13.15
2022-11-07T22:04:08.477Z,13.05
2022-11-07T22:06:38.285Z,12.98
2022-11-07T22:09:06.569Z,12.99
2022-11-07T22:11:33.315Z,12.96
2022-11-07T22:13:59.929Z,12.99
2022-11-07T22:16:26.711Z,12.96
2022-11-07T22:18:53.335Z,12.87
2022-11-07T22:21:22.526Z,12.92
2022-11-07T22:23:49.706Z,12.90
2022-11-07T22:26:18.819Z,12.97
2022-11-07T22:28:46.461Z,12.99
2022-11-07T22:31:20.595Z,13.00
2022-11-07T22:33:47.763Z,12.97
2022-11-07T22:36:14.818Z,12.90
2022-11-07T22:38:41.691Z,12.89
2022-11-07T22:41:11.537Z,12.83
2022-11-07T22:43:38.067Z,12.85
2022-11-07T22:46:11.630Z,12.85
2022-11-07T22:48:38.518Z,12.83
2022-11-07T22:51:10.890Z,12.78
2022-11-07T22:53:39.192Z,12.73
2022-11-07T22:56:13.532Z,12.71
2022-11-07T22:58:41.176Z,12.74
2022-11-07T23:01:17.462Z,12.74
2022-11-07T23:03:44.572Z,12.68
2022-11-07T23:06:11.548Z,12.72
2022-11-07T23:08:38.674Z,12.68
2022-11-07T23:14:02.606Z,12.52
2022-11-07T23:16:37.997Z,12.56
2022-11-07T23:19:07.915Z,12.60
2022-11-07T23:21:35.173Z,12.58
2022-11-07T23:24:02.261Z,12.57
2022-11-07T23:26:33.482Z,12.59
2022-11-07T23:29:21.789Z,12.59
2022-11-07T23:31:49.845Z,12.52
2022-11-07T23:34:17.440Z,12.49
2022-11-07T23:36:44.983Z,12.47
2022-11-07T23:39:17.606Z,12.49
2022-11-07T23:41:44.666Z,12.55
2022-11-07T23:44:11.765Z,12.55
2022-11-07T23:46:57.145Z,12.46
2022-11-07T23:49:42.398Z,12.37
2022-11-07T23:52:09.041Z,12.36
2022-11-07T23:54:53.839Z,12.38
2022-11-07T23:57:20.443Z,12.32
